sensor_id;sensor_type;location;lat;lon;timestamp;pressure;altitude;pressure_sealevel;temperature;humidity
34237;BME280;20501;45.956;13.632;2023-05-01T00:00:46;100680.78;;;15.55;46.98
34237;BME280;20501;45.956;13.632;2023-05-01T00:03:12;100677.06;;;15.65;51.44
34237;BME280;20501;45.956;13.632;2023-05-01T00:05:38;100668.53;;;15.68;51.89
34237;BME280;20501;45.956;13.632;2023-05-01T00:08:03;100672.28;;;15.67;48.78
34237;BME280;20501;45.956;13.632;2023-05-01T00:10:29;100673.34;;;15.66;51.92
34237;BME280;20501;45.956;13.632;2023-05-01T00:12:55;100671.94;;;15.70;56.40
34237;BME280;20501;45.956;13.632;2023-05-01T00:15:20;100665.81;;;15.35;50.48
34237;BME280;20501;45.956;13.632;2023-05-01T00:17:46;100677.53;;;15.02;55.26
34237;BME280;20501;45.956;13.632;2023-05-01T00:20:13;100661.22;;;15.19;56.87
34237;BME280;20501;45.956;13.632;2023-05-01T00:22:38;100677.03;;;14.98;49.48
34237;BME280;20501;45.956;13.632;2023-05-01T00:25:04;100669.63;;;14.74;52.82
34237;BME280;20501;45.956;13.632;2023-05-01T00:27:30;100667.50;;;15.02;58.16
34237;BME280;20501;45.956;13.632;2023-05-01T00:29:55;100667.16;;;15.06;49.57
34237;BME280;20501;45.956;13.632;2023-05-01T00:32:21;100660.06;;;15.21;49.69
34237;BME280;20501;45.956;13.632;2023-05-01T00:34:46;100669.41;;;15.52;54.48
34237;BME280;20501;45.956;13.632;2023-05-01T00:37:12;100661.22;;;15.52;56.52
34237;BME280;20501;45.956;13.632;2023-05-01T00:39:38;100657.31;;;15.46;56.83
34237;BME280;20501;45.956;13.632;2023-05-01T00:42:03;100661.91;;;15.54;55.24
34237;BME280;20501;45.956;13.632;2023-05-01T00:44:28;100655.09;;;15.08;50.59
34237;BME280;20501;45.956;13.632;2023-05-01T00:46:54;100659.50;;;15.09;55.56
34237;BME280;20501;45.956;13.632;2023-05-01T00:49:22;100659.63;;;14.83;56.99
34237;BME280;20501;45.956;13.632;2023-05-01T00:51:49;100659.22;;;15.37;57.85
34237;BME280;20501;45.956;13.632;2023-05-01T00:54:17;100659.00;;;15.55;58.14
34237;BME280;20501;45.956;13.632;2023-05-01T00:56:47;100653.91;;;15.27;57.45
34237;BME280;20501;45.956;13.632;2023-05-01T00:59:13;100659.28;;;14.78;54.95
34237;BME280;20501;45.956;13.632;2023-05-01T01:01:42;100665.28;;;14.98;58.73
34237;BME280;20501;45.956;13.632;2023-05-01T01:04:08;100658.59;;;14.67;52.82
34237;BME280;20501;45.956;13.632;2023-05-01T01:06:51;100658.69;;;15.25;59.40
34237;BME280;20501;45.956;13.632;2023-05-01T01:12:40;100664.44;;;15.06;59.77
34237;BME280;20501;45.956;13.632;2023-05-01T01:15:30;100657.28;;;14.11;55.74
34237;BME280;20501;45.956;13.632;2023-05-01T01:20:40;100653.16;;;14.76;55.03
34237;BME280;20501;45.956;13.632;2023-05-01T01:23:32;100661.66;;;14.81;51.75
34237;BME280;20501;45.956;13.632;2023-05-01T01:31:19;100644.13;;;14.67;51.85
34237;BME280;20501;45.956;13.632;2023-05-01T01:34:00;100635.69;;;14.35;52.92
34237;BME280;20501;45.956;13.632;2023-05-01T01:36:42;100641.44;;;14.32;54.08
34237;BME280;20501;45.956;13.632;2023-05-01T01:39:41;100649.22;;;14.27;53.50
34237;BME280;20501;45.956;13.632;2023-05-01T01:42:10;100644.47;;;14.29;52.97
34237;BME280;20501;45.956;13.632;2023-05-01T01:44:41;100626.84;;;14.33;51.40
34237;BME280;20501;45.956;13.632;2023-05-01T01:47:11;100642.25;;;14.24;57.14
34237;BME280;20501;45.956;13.632;2023-05-01T01:49:39;100630.81;;;14.64;54.34
34237;BME280;20501;45.956;13.632;2023-05-01T01:52:07;100636.47;;;14.70;58.20
34237;BME280;20501;45.956;13.632;2023-05-01T01:54:38;100636.91;;;15.09;58.69
34237;BME280;20501;45.956;13.632;2023-05-01T01:57:06;100637.69;;;14.25;52.83
34237;BME280;20501;45.956;13.632;2023-05-01T01:59:34;100647.22;;;14.03;54.25
34237;BME280;20501;45.956;13.632;2023-05-01T02:02:02;100639.28;;;14.52;59.36
34237;BME280;20501;45.956;13.632;2023-05-01T02:04:30;100631.63;;;15.07;57.91
34237;BME280;20501;45.956;13.632;2023-05-01T02:06:57;100641.28;;;13.73;56.92
34237;BME280;20501;45.956;13.632;2023-05-01T02:09:25;100639.84;;;14.64;59.21
34237;BME280;20501;45.956;13.632;2023-05-01T02:11:53;100632.13;;;14.94;58.44
34237;BME280;20501;45.956;13.632;2023-05-01T02:14:24;100630.31;;;14.09;55.05
34237;BME280;20501;45.956;13.632;2023-05-01T02:16:51;100634.50;;;14.46;55.13
34237;BME280;20501;45.956;13.632;2023-05-01T02:19:16;100642.53;;;13.87;55.30
34237;BME280;20501;45.956;13.632;2023-05-01T02:21:44;100646.84;;;14.24;55.08
34237;BME280;20501;45.956;13.632;2023-05-01T02:24:11;100648.41;;;14.00;56.02
34237;BME280;20501;45.956;13.632;2023-05-01T02:26:42;100646.75;;;13.81;56.40
34237;BME280;20501;45.956;13.632;2023-05-01T02:29:09;100647.91;;;14.82;59.69
34237;BME280;20501;45.956;13.632;2023-05-01T02:31:34;100642.22;;;14.16;56.89
34237;BME280;20501;45.956;13.632;2023-05-01T02:34:00;100641.09;;;14.78;59.46
34237;BME280;20501;45.956;13.632;2023-05-01T02:36:25;100644.94;;;14.16;54.73
34237;BME280;20501;45.956;13.632;2023-05-01T02:38:52;100639.59;;;14.06;54.68
34237;BME280;20501;45.956;13.632;2023-05-01T02:41:19;100635.75;;;14.17;61.12
34237;BME280;20501;45.956;13.632;2023-05-01T02:43:48;100645.28;;;14.64;60.04
34237;BME280;20501;45.956;13.632;2023-05-01T02:46:19;100632.50;;;14.57;55.62
34237;BME280;20501;45.956;13.632;2023-05-01T02:48:46;100639.69;;;14.23;59.40
34237;BME280;20501;45.956;13.632;2023-05-01T02:51:13;100634.84;;;14.86;59.42
34237;BME280;20501;45.956;13.632;2023-05-01T02:53:38;100634.69;;;15.12;58.82
34237;BME280;20501;45.956;13.632;2023-05-01T02:56:05;100626.44;;;13.85;57.56
34237;BME280;20501;45.956;13.632;2023-05-01T02:58:33;100629.72;;;13.97;59.97
34237;BME280;20501;45.956;13.632;2023-05-01T03:00:58;100624.34;;;14.57;60.54
34237;BME280;20501;45.956;13.632;2023-05-01T03:03:24;100617.88;;;15.00;58.91
34237;BME280;20501;45.956;13.632;2023-05-01T03:05:49;100623.56;;;14.73;57.55
34237;BME280;20501;45.956;13.632;2023-05-01T03:08:16;100608.31;;;14.29;55.84
34237;BME280;20501;45.956;13.632;2023-05-01T03:10:42;100601.31;;;14.77;56.25
34237;BME280;20501;45.956;13.632;2023-05-01T03:13:07;100611.59;;;14.06;56.43
34237;BME280;20501;45.956;13.632;2023-05-01T03:15:35;100605.47;;;13.69;57.40
34237;BME280;20501;45.956;13.632;2023-05-01T03:18:01;100611.13;;;13.13;58.08
34237;BME280;20501;45.956;13.632;2023-05-01T03:20:26;100608.50;;;14.01;61.84
34237;BME280;20501;45.956;13.632;2023-05-01T03:22:52;100609.50;;;14.00;57.03
34237;BME280;20501;45.956;13.632;2023-05-01T03:25:17;100600.75;;;14.57;60.07
34237;BME280;20501;45.956;13.632;2023-05-01T03:27:43;100598.84;;;12.91;58.80
34237;BME280;20501;45.956;13.632;2023-05-01T03:30:09;100599.63;;;13.90;62.33
34237;BME280;20501;45.956;13.632;2023-05-01T03:32:34;100591.09;;;14.12;55.89
34237;BME280;20501;45.956;13.632;2023-05-01T03:35:01;100584.25;;;14.07;61.20
34237;BME280;20501;45.956;13.632;2023-05-01T03:37:27;100595.97;;;13.29;62.80
34237;BME280;20501;45.956;13.632;2023-05-01T03:39:52;100589.38;;;13.50;60.69
34237;BME280;20501;45.956;13.632;2023-05-01T03:42:18;100579.28;;;14.37;60.65
34237;BME280;20501;45.956;13.632;2023-05-01T03:44:44;100573.09;;;13.76;57.33
34237;BME280;20501;45.956;13.632;2023-05-01T03:47:09;100573.84;;;13.15;60.96
34237;BME280;20501;45.956;13.632;2023-05-01T03:49:35;100568.13;;;13.98;61.70
34237;BME280;20501;45.956;13.632;2023-05-01T03:52:00;100566.91;;;13.39;57.28
34237;BME280;20501;45.956;13.632;2023-05-01T03:54:26;100576.25;;;12.82;58.92
34237;BME280;20501;45.956;13.632;2023-05-01T03:56:51;100573.56;;;13.71;62.21
34237;BME280;20501;45.956;13.632;2023-05-01T03:59:17;100560.94;;;12.09;61.82
34237;BME280;20501;45.956;13.632;2023-05-01T04:01:43;100559.28;;;12.98;59.70
34237;BME280;20501;45.956;13.632;2023-05-01T04:04:09;100564.97;;;13.50;62.63
34237;BME280;20501;45.956;13.632;2023-05-01T04:06:34;100562.25;;;13.31;60.75
34237;BME280;20501;45.956;13.632;2023-05-01T04:09:01;100567.69;;;13.50;58.03
34237;BME280;20501;45.956;13.632;2023-05-01T04:11:26;100549.03;;;13.55;59.36
34237;BME280;20501;45.956;13.632;2023-05-01T04:13:52;100552.06;;;13.34;53.93
34237;BME280;20501;45.956;13.632;2023-05-01T04:16:17;100542.34;;;13.41;55.38
34237;BME280;20501;45.956;13.632;2023-05-01T04:18:43;100526.56;;;13.71;55.89
34237;BME280;20501;45.956;13.632;2023-05-01T04:21:08;100530.03;;;13.55;55.70
34237;BME280;20501;45.956;13.632;2023-05-01T04:23:33;100534.38;;;14.17;59.40
34237;BME280;20501;45.956;13.632;2023-05-01T04:25:59;100556.34;;;13.36;54.83
34237;BME280;20501;45.956;13.632;2023-05-01T04:28:24;100549.22;;;13.35;53.66
34237;BME280;20501;45.956;13.632;2023-05-01T04:30:51;100533.25;;;13.93;54.34
34237;BME280;20501;45.956;13.632;2023-05-01T04:33:17;100545.34;;;13.99;54.25
34237;BME280;20501;45.956;13.632;2023-05-01T04:35:42;100539.06;;;14.58;58.20
34237;BME280;20501;45.956;13.632;2023-05-01T04:38:08;100538.09;;;14.07;54.50
34237;BME280;20501;45.956;13.632;2023-05-01T04:40:34;100537.03;;;14.60;58.42
34237;BME280;20501;45.956;13.632;2023-05-01T04:42:59;100535.84;;;13.95;55.74
34237;BME280;20501;45.956;13.632;2023-05-01T04:45:25;100537.63;;;13.77;55.58
34237;BME280;20501;45.956;13.632;2023-05-01T04:47:51;100549.25;;;14.47;59.33
34237;BME280;20501;45.956;13.632;2023-05-01T04:50:16;100558.31;;;13.44;54.84
34237;BME280;20501;45.956;13.632;2023-05-01T04:52:41;100550.59;;;14.43;58.94
34237;BME280;20501;45.956;13.632;2023-05-01T04:55:07;100552.25;;;14.19;51.28
34237;BME280;20501;45.956;13.632;2023-05-01T04:57:36;100558.22;;;14.31;55.08
34237;BME280;20501;45.956;13.632;2023-05-01T05:00:01;100554.41;;;14.75;56.39
34237;BME280;20501;45.956;13.632;2023-05-01T05:02:27;100553.28;;;13.57;54.60
34237;BME280;20501;45.956;13.632;2023-05-01T05:04:53;100548.22;;;13.97;58.50
34237;BME280;20501;45.956;13.632;2023-05-01T05:07:19;100553.50;;;13.99;51.47
34237;BME280;20501;45.956;13.632;2023-05-01T05:09:45;100562.44;;;14.26;55.90
34237;BME280;20501;45.956;13.632;2023-05-01T05:12:10;100555.47;;;14.23;57.91
34237;BME280;20501;45.956;13.632;2023-05-01T05:14:36;100565.53;;;14.39;56.38
34237;BME280;20501;45.956;13.632;2023-05-01T05:17:01;100559.63;;;14.52;51.91
34237;BME280;20501;45.956;13.632;2023-05-01T05:19:27;100567.78;;;14.60;56.64
34237;BME280;20501;45.956;13.632;2023-05-01T05:21:52;100569.06;;;14.82;57.90
34237;BME280;20501;45.956;13.632;2023-05-01T05:24:18;100576.19;;;14.83;53.28
34237;BME280;20501;45.956;13.632;2023-05-01T05:26:43;100568.75;;;14.34;51.52
34237;BME280;20501;45.956;13.632;2023-05-01T05:29:09;100573.56;;;14.57;57.67
34237;BME280;20501;45.956;13.632;2023-05-01T05:31:34;100579.75;;;14.67;56.50
34237;BME280;20501;45.956;13.632;2023-05-01T05:33:59;100573.63;;;14.82;53.35
34237;BME280;20501;45.956;13.632;2023-05-01T05:36:25;100571.19;;;14.11;55.21
34237;BME280;20501;45.956;13.632;2023-05-01T05:38:51;100577.81;;;14.51;58.26
34237;BME280;20501;45.956;13.632;2023-05-01T05:41:17;100586.38;;;14.73;58.52
34237;BME280;20501;45.956;13.632;2023-05-01T05:43:42;100582.66;;;14.31;54.32
34237;BME280;20501;45.956;13.632;2023-05-01T05:46:08;100577.63;;;14.53;54.18
34237;BME280;20501;45.956;13.632;2023-05-01T05:48:33;100583.25;;;14.51;54.43
34237;BME280;20501;45.956;13.632;2023-05-01T05:50:59;100573.44;;;14.75;53.89
34237;BME280;20501;45.956;13.632;2023-05-01T05:53:24;100576.00;;;14.77;54.70
34237;BME280;20501;45.956;13.632;2023-05-01T05:55:50;100568.03;;;14.83;54.12
34237;BME280;20501;45.956;13.632;2023-05-01T05:58:15;100570.75;;;14.83;50.98
34237;BME280;20501;45.956;13.632;2023-05-01T06:00:49;100575.84;;;14.86;52.10
34237;BME280;20501;45.956;13.632;2023-05-01T06:03:17;100571.78;;;14.91;50.15
34237;BME280;20501;45.956;13.632;2023-05-01T06:05:43;100580.44;;;15.02;50.10
34237;BME280;20501;45.956;13.632;2023-05-01T06:08:10;100576.69;;;15.12;49.02
34237;BME280;20501;45.956;13.632;2023-05-01T06:10:36;100577.56;;;15.21;50.91
34237;BME280;20501;45.956;13.632;2023-05-01T06:13:04;100586.06;;;15.26;50.26
34237;BME280;20501;45.956;13.632;2023-05-01T06:15:29;100582.47;;;15.25;47.81
34237;BME280;20501;45.956;13.632;2023-05-01T06:17:55;100583.16;;;15.36;49.09
34237;BME280;20501;45.956;13.632;2023-05-01T06:20:20;100586.22;;;15.41;48.17
34237;BME280;20501;45.956;13.632;2023-05-01T06:22:46;100586.03;;;15.42;48.22
34237;BME280;20501;45.956;13.632;2023-05-01T06:25:12;100587.22;;;15.48;48.34
34237;BME280;20501;45.956;13.632;2023-05-01T06:27:38;100595.25;;;15.33;48.84
34237;BME280;20501;45.956;13.632;2023-05-01T06:30:03;100585.38;;;15.32;47.26
34237;BME280;20501;45.956;13.632;2023-05-01T06:32:29;100597.78;;;15.43;47.22
34237;BME280;20501;45.956;13.632;2023-05-01T06:34:54;100600.34;;;15.44;46.44
34237;BME280;20501;45.956;13.632;2023-05-01T06:37:20;100602.72;;;15.56;49.65
34237;BME280;20501;45.956;13.632;2023-05-01T06:39:46;100604.91;;;15.60;47.92
34237;BME280;20501;45.956;13.632;2023-05-01T06:42:12;100605.94;;;15.59;47.36
34237;BME280;20501;45.956;13.632;2023-05-01T06:44:40;100608.63;;;15.68;47.47
34237;BME280;20501;45.956;13.632;2023-05-01T06:47:06;100604.22;;;15.67;47.15
34237;BME280;20501;45.956;13.632;2023-05-01T06:49:31;100612.03;;;15.70;46.13
34237;BME280;20501;45.956;13.632;2023-05-01T06:51:58;100621.06;;;15.70;47.37
34237;BME280;20501;45.956;13.632;2023-05-01T06:54:23;100615.91;;;15.84;46.56
34237;BME280;20501;45.956;13.632;2023-05-01T06:56:51;100612.03;;;15.94;46.16
34237;BME280;20501;45.956;13.632;2023-05-01T06:59:17;100620.72;;;15.90;46.94
34237;BME280;20501;45.956;13.632;2023-05-01T07:01:42;100616.97;;;15.91;45.59
34237;BME280;20501;45.956;13.632;2023-05-01T07:04:08;100618.69;;;15.92;45.54
34237;BME280;20501;45.956;13.632;2023-05-01T07:06:33;100613.53;;;15.97;46.34
34237;BME280;20501;45.956;13.632;2023-05-01T07:08:59;100609.97;;;15.88;47.02
34237;BME280;20501;45.956;13.632;2023-05-01T07:11:25;100608.59;;;16.01;46.10
34237;BME280;20501;45.956;13.632;2023-05-01T07:13:51;100606.16;;;16.14;44.47
34237;BME280;20501;45.956;13.632;2023-05-01T07:16:17;100611.47;;;16.07;47.49
34237;BME280;20501;45.956;13.632;2023-05-01T07:18:42;100613.88;;;16.02;48.88
34237;BME280;20501;45.956;13.632;2023-05-01T07:21:08;100612.28;;;16.16;45.71
34237;BME280;20501;45.956;13.632;2023-05-01T07:23:36;100608.66;;;16.32;45.49
34237;BME280;20501;45.956;13.632;2023-05-01T07:26:01;100612.00;;;16.43;46.40
34237;BME280;20501;45.956;13.632;2023-05-01T07:28:28;100614.19;;;16.47;45.76
34237;BME280;20501;45.956;13.632;2023-05-01T07:30:53;100611.91;;;16.59;47.92
34237;BME280;20501;45.956;13.632;2023-05-01T07:33:19;100613.19;;;16.71;45.99
34237;BME280;20501;45.956;13.632;2023-05-01T07:35:44;100603.72;;;16.91;46.00
34237;BME280;20501;45.956;13.632;2023-05-01T07:38:10;100610.78;;;16.77;44.61
34237;BME280;20501;45.956;13.632;2023-05-01T07:40:36;100603.91;;;16.89;43.57
34237;BME280;20501;45.956;13.632;2023-05-01T07:43:02;100596.41;;;17.14;41.74
34237;BME280;20501;45.956;13.632;2023-05-01T07:45:29;100604.91;;;17.35;42.20
34237;BME280;20501;45.956;13.632;2023-05-01T07:47:54;100596.69;;;17.58;41.46
34237;BME280;20501;45.956;13.632;2023-05-01T07:50:21;100592.25;;;17.42;43.44
34237;BME280;20501;45.956;13.632;2023-05-01T07:52:47;100599.63;;;17.71;40.83
34237;BME280;20501;45.956;13.632;2023-05-01T07:55:13;100591.63;;;16.62;53.58
34237;BME280;20501;45.956;13.632;2023-05-01T07:57:39;100591.81;;;16.29;54.29
34237;BME280;20501;45.956;13.632;2023-05-01T08:00:05;100600.03;;;16.75;50.39
34237;BME280;20501;45.956;13.632;2023-05-01T08:02:30;100596.16;;;17.01;49.40
34237;BME280;20501;45.956;13.632;2023-05-01T08:04:56;63816.28;;;-148.00;100.00
34237;BME280;20501;45.956;13.632;2023-05-01T08:07:21;63816.28;;;-148.00;100.00
34237;BME280;20501;45.956;13.632;2023-05-01T08:09:47;63816.28;;;-148.00;100.00
34237;BME280;20501;45.956;13.632;2023-05-01T08:12:12;63816.28;;;-148.00;100.00
34237;BME280;20501;45.956;13.632;2023-05-01T08:14:38;63816.28;;;-148.00;100.00
34237;BME280;20501;45.956;13.632;2023-05-01T08:17:03;63816.28;;;-148.00;100.00
34237;BME280;20501;45.956;13.632;2023-05-01T08:19:29;63816.28;;;-148.00;100.00
34237;BME280;20501;45.956;13.632;2023-05-01T08:21:54;63816.28;;;-148.00;100.00
34237;BME280;20501;45.956;13.632;2023-05-01T08:24:20;63816.28;;;-148.00;100.00
34237;BME280;20501;45.956;13.632;2023-05-01T08:26:45;63816.28;;;-148.00;100.00
34237;BME280;20501;45.956;13.632;2023-05-01T08:29:11;63816.28;;;-148.00;100.00
34237;BME280;20501;45.956;13.632;2023-05-01T08:31:36;63816.28;;;-148.00;100.00
34237;BME280;20501;45.956;13.632;2023-05-01T08:34:03;63816.28;;;-148.00;100.00
34237;BME280;20501;45.956;13.632;2023-05-01T08:36:29;63816.28;;;-148.00;100.00
34237;BME280;20501;45.956;13.632;2023-05-01T08:38:55;63816.28;;;-148.00;100.00
34237;BME280;20501;45.956;13.632;2023-05-01T08:41:21;63816.28;;;-148.00;100.00
34237;BME280;20501;45.956;13.632;2023-05-01T08:43:48;63816.28;;;-148.00;100.00
34237;BME280;20501;45.956;13.632;2023-05-01T08:48:58;63816.28;;;-148.00;100.00
34237;BME280;20501;45.956;13.632;2023-05-01T08:51:29;63816.28;;;-148.00;100.00
34237;BME280;20501;45.956;13.632;2023-05-01T08:53:57;63816.28;;;-148.00;100.00
34237;BME280;20501;45.956;13.632;2023-05-01T08:56:24;63816.28;;;-148.00;100.00
34237;BME280;20501;45.956;13.632;2023-05-01T08:58:51;63816.28;;;-148.00;100.00
34237;BME280;20501;45.956;13.632;2023-05-01T09:01:18;63816.28;;;-148.00;100.00
34237;BME280;20501;45.956;13.632;2023-05-01T09:03:45;63816.28;;;-148.00;100.00
34237;BME280;20501;45.956;13.632;2023-05-01T09:06:12;63816.28;;;-148.00;100.00
34237;BME280;20501;45.956;13.632;2023-05-01T09:08:38;63816.28;;;-148.00;100.00
34237;BME280;20501;45.956;13.632;2023-05-01T09:11:03;63816.28;;;-148.00;100.00
34237;BME280;20501;45.956;13.632;2023-05-01T09:13:29;63816.28;;;-148.00;100.00
34237;BME280;20501;45.956;13.632;2023-05-01T09:15:55;63816.28;;;-148.00;100.00
34237;BME280;20501;45.956;13.632;2023-05-01T09:18:21;63816.28;;;-148.00;100.00
34237;BME280;20501;45.956;13.632;2023-05-01T09:20:46;63816.28;;;-148.00;100.00
34237;BME280;20501;45.956;13.632;2023-05-01T09:23:13;63816.28;;;-148.00;100.00
34237;BME280;20501;45.956;13.632;2023-05-01T09:25:38;63816.28;;;-148.00;100.00
34237;BME280;20501;45.956;13.632;2023-05-01T09:28:05;63816.28;;;-148.00;100.00
34237;BME280;20501;45.956;13.632;2023-05-01T09:30:32;63816.28;;;-148.00;100.00
34237;BME280;20501;45.956;13.632;2023-05-01T09:35:49;63816.28;;;-148.00;100.00
34237;BME280;20501;45.956;13.632;2023-05-01T09:38:25;63816.28;;;-148.00;100.00
34237;BME280;20501;45.956;13.632;2023-05-01T09:40:55;63816.28;;;-148.00;100.00
34237;BME280;20501;45.956;13.632;2023-05-01T09:43:28;63816.28;;;-148.00;100.00
34237;BME280;20501;45.956;13.632;2023-05-01T09:46:09;63816.28;;;-148.00;100.00
34237;BME280;20501;45.956;13.632;2023-05-01T09:48:36;63816.28;;;-148.00;100.00
34237;BME280;20501;45.956;13.632;2023-05-01T09:51:32;63816.28;;;-148.00;100.00
34237;BME280;20501;45.956;13.632;2023-05-01T09:54:01;63816.28;;;-148.00;100.00
34237;BME280;20501;45.956;13.632;2023-05-01T09:56:29;63816.28;;;-148.00;100.00
34237;BME280;20501;45.956;13.632;2023-05-01T09:58:57;63816.28;;;-148.00;100.00
34237;BME280;20501;45.956;13.632;2023-05-01T10:01:38;63816.28;;;-148.00;100.00
34237;BME280;20501;45.956;13.632;2023-05-01T10:04:04;63816.28;;;-148.00;100.00
34237;BME280;20501;45.956;13.632;2023-05-01T10:06:30;63816.28;;;-148.00;100.00
34237;BME280;20501;45.956;13.632;2023-05-01T10:08:56;63816.28;;;-148.00;100.00
34237;BME280;20501;45.956;13.632;2023-05-01T10:11:22;63816.28;;;-148.00;100.00
34237;BME280;20501;45.956;13.632;2023-05-01T10:14:07;63816.28;;;-148.00;100.00
34237;BME280;20501;45.956;13.632;2023-05-01T10:16:34;63816.28;;;-148.00;100.00
34237;BME280;20501;45.956;13.632;2023-05-01T10:19:00;63816.28;;;-148.00;100.00
34237;BME280;20501;45.956;13.632;2023-05-01T10:21:26;63816.28;;;-148.00;100.00
34237;BME280;20501;45.956;13.632;2023-05-01T10:23:52;63816.28;;;-148.00;100.00
34237;BME280;20501;45.956;13.632;2023-05-01T10:26:19;63816.28;;;-148.00;100.00
34237;BME280;20501;45.956;13.632;2023-05-01T10:28:47;63816.28;;;-148.00;100.00
34237;BME280;20501;45.956;13.632;2023-05-01T10:31:13;63816.28;;;-148.00;100.00
34237;BME280;20501;45.956;13.632;2023-05-01T10:33:39;63816.28;;;-148.00;100.00
34237;BME280;20501;45.956;13.632;2023-05-01T10:36:10;63816.28;;;-148.00;100.00
34237;BME280;20501;45.956;13.632;2023-05-01T10:38:37;63816.28;;;-148.00;100.00
34237;BME280;20501;45.956;13.632;2023-05-01T10:41:02;63816.28;;;-148.00;100.00
34237;BME280;20501;45.956;13.632;2023-05-01T10:43:31;63816.28;;;-148.00;100.00
34237;BME280;20501;45.956;13.632;2023-05-01T10:51:17;63816.28;;;-148.00;100.00
34237;BME280;20501;45.956;13.632;2023-05-01T10:53:49;63816.28;;;-148.00;100.00
34237;BME280;20501;45.956;13.632;2023-05-01T10:58:58;63816.28;;;-148.00;100.00
34237;BME280;20501;45.956;13.632;2023-05-01T11:09:43;63816.28;;;-148.00;100.00
34237;BME280;20501;45.956;13.632;2023-05-01T11:12:47;63816.28;;;-148.00;100.00
34237;BME280;20501;45.956;13.632;2023-05-01T11:15:32;63816.28;;;-148.00;100.00
34237;BME280;20501;45.956;13.632;2023-05-01T11:18:01;63816.28;;;-148.00;100.00
34237;BME280;20501;45.956;13.632;2023-05-01T11:22:56;63816.28;;;-148.00;100.00
34237;BME280;20501;45.956;13.632;2023-05-01T11:25:27;63816.28;;;-148.00;100.00
34237;BME280;20501;45.956;13.632;2023-05-01T11:27:58;63816.28;;;-148.00;100.00
34237;BME280;20501;45.956;13.632;2023-05-01T11:30:23;63816.28;;;-148.00;100.00
34237;BME280;20501;45.956;13.632;2023-05-01T11:32:50;63816.28;;;-148.00;100.00
34237;BME280;20501;45.956;13.632;2023-05-01T11:37:41;63816.28;;;-148.00;100.00
34237;BME280;20501;45.956;13.632;2023-05-01T11:40:25;63816.28;;;-148.00;100.00
34237;BME280;20501;45.956;13.632;2023-05-01T11:43:02;63816.28;;;-148.00;100.00
34237;BME280;20501;45.956;13.632;2023-05-01T11:45:28;63816.28;;;-148.00;100.00
34237;BME280;20501;45.956;13.632;2023-05-01T11:47:54;63816.28;;;-148.00;100.00
34237;BME280;20501;45.956;13.632;2023-05-01T11:50:20;63816.28;;;-148.00;100.00
34237;BME280;20501;45.956;13.632;2023-05-01T11:52:50;63816.28;;;-148.00;100.00
34237;BME280;20501;45.956;13.632;2023-05-01T11:55:29;63816.28;;;-148.00;100.00
34237;BME280;20501;45.956;13.632;2023-05-01T11:57:55;63816.28;;;-148.00;100.00
34237;BME280;20501;45.956;13.632;2023-05-01T12:00:26;63816.28;;;-148.00;100.00
34237;BME280;20501;45.956;13.632;2023-05-01T12:03:03;63816.28;;;-148.00;100.00
34237;BME280;20501;45.956;13.632;2023-05-01T12:05:34;63816.28;;;-148.00;100.00
34237;BME280;20501;45.956;13.632;2023-05-01T12:10:54;63816.28;;;-148.00;100.00
34237;BME280;20501;45.956;13.632;2023-05-01T12:13:20;63816.28;;;-148.00;100.00
34237;BME280;20501;45.956;13.632;2023-05-01T12:15:48;63816.28;;;-148.00;100.00
34237;BME280;20501;45.956;13.632;2023-05-01T12:18:14;63816.28;;;-148.00;100.00
34237;BME280;20501;45.956;13.632;2023-05-01T12:20:52;63816.28;;;-148.00;100.00
34237;BME280;20501;45.956;13.632;2023-05-01T12:23:31;63816.28;;;-148.00;100.00
34237;BME280;20501;45.956;13.632;2023-05-01T12:25:57;63816.28;;;-148.00;100.00
34237;BME280;20501;45.956;13.632;2023-05-01T12:28:23;63816.28;;;-148.00;100.00
34237;BME280;20501;45.956;13.632;2023-05-01T12:30:49;63816.28;;;-148.00;100.00
34237;BME280;20501;45.956;13.632;2023-05-01T12:33:16;63816.28;;;-148.00;100.00
34237;BME280;20501;45.956;13.632;2023-05-01T12:35:43;63816.28;;;-148.00;100.00
34237;BME280;20501;45.956;13.632;2023-05-01T12:40:56;63816.28;;;-148.00;100.00
34237;BME280;20501;45.956;13.632;2023-05-01T12:43:29;63816.28;;;-148.00;100.00
34237;BME280;20501;45.956;13.632;2023-05-01T12:45:55;63816.28;;;-148.00;100.00
34237;BME280;20501;45.956;13.632;2023-05-01T12:48:21;63816.28;;;-148.00;100.00
34237;BME280;20501;45.956;13.632;2023-05-01T12:50:47;63816.28;;;-148.00;100.00
34237;BME280;20501;45.956;13.632;2023-05-01T12:53:20;63816.28;;;-148.00;100.00
34237;BME280;20501;45.956;13.632;2023-05-01T12:55:48;63816.28;;;-148.00;100.00
34237;BME280;20501;45.956;13.632;2023-05-01T12:58:14;63816.28;;;-148.00;100.00
34237;BME280;20501;45.956;13.632;2023-05-01T13:00:44;63816.28;;;-148.00;100.00
34237;BME280;20501;45.956;13.632;2023-05-01T13:03:10;63816.28;;;-148.00;100.00
34237;BME280;20501;45.956;13.632;2023-05-01T13:05:36;63816.28;;;-148.00;100.00
34237;BME280;20501;45.956;13.632;2023-05-01T13:08:13;63816.28;;;-148.00;100.00
34237;BME280;20501;45.956;13.632;2023-05-01T13:10:39;63816.28;;;-148.00;100.00
34237;BME280;20501;45.956;13.632;2023-05-01T13:13:04;63816.28;;;-148.00;100.00
34237;BME280;20501;45.956;13.632;2023-05-01T13:15:30;63816.28;;;-148.00;100.00
34237;BME280;20501;45.956;13.632;2023-05-01T13:18:02;63816.28;;;-148.00;100.00